Time;durP1;ratioP1;P1;durP2;ratioP2;P2;SDS_P1;SDS_P2;PMS_P1;PMS_P2;Temp;Humidity;BMP_temperature;BMP_pressure;BME280_temperature;BME280_humidity;BME280_pressure;Samples;Min_cycle;Max_cycle;Signal;HPM_P1;HPM_P2
2023/08/26 00:00:17;;;;;;;4.80;2.35;;;;;;;22.04;61.96;99231.41;10387802;28;20124;-66
2023/08/26 00:05:21;;;;;;;6.28;3.00;;;;;;;21.84;61.98;99236.38;10392387;28;20179;-66
2023/08/26 00:10:23;;;;;;;3.70;2.70;;;;;;;21.64;62.03;99237.06;10388520;28;20049;-66
2023/08/26 00:15:25;;;;;;;4.90;2.67;;;;;;;21.53;61.67;99238.31;10387726;28;20522;-66
2023/08/26 00:20:27;;;;;;;5.20;2.85;;;;;;;21.58;61.56;99259.03;10388715;28;20457;-67
2023/08/26 00:25:30;;;;;;;5.13;2.80;;;;;;;21.38;61.27;99248.03;10386835;28;20775;-66
2023/08/26 00:30:31;;;;;;;4.88;2.50;;;;;;;21.19;60.93;99239.69;10389594;28;20053;-66
2023/08/26 00:35:37;;;;;;;4.00;2.22;;;;;;;21.06;60.63;99249.06;10386718;28;20050;-66
2023/08/26 00:40:39;;;;;;;4.88;2.40;;;;;;;20.88;61.28;99247.66;10387850;28;20041;-65
2023/08/26 00:45:46;;;;;;;8.70;2.58;;;;;;;20.47;62.26;99270.88;10401448;28;20045;-65
2023/08/26 00:50:50;;;;;;;7.05;2.45;;;;;;;20.04;63.45;99256.19;10400978;28;20555;-65
2023/08/26 00:55:52;;;;;;;6.13;2.65;;;;;;;19.84;63.59;99262.00;10416779;28;20049;-65
2023/08/26 01:00:55;;;;;;;4.18;2.30;;;;;;;19.88;63.80;99263.31;10402204;28;20040;-66
2023/08/26 01:05:57;;;;;;;4.65;2.50;;;;;;;19.97;63.30;99262.34;10408971;28;20042;-65
2023/08/26 01:11:25;;;;;;;8.25;3.17;;;;;;;20.01;63.53;99276.94;10384765;28;20061;-65
2023/08/26 01:16:30;;;;;;;5.60;2.38;;;;;;;20.02;63.54;99281.22;10389223;28;20086;-65
2023/08/26 01:21:36;;;;;;;4.55;2.13;;;;;;;19.99;63.92;99284.22;10387380;28;20581;-66
2023/08/26 01:26:38;;;;;;;4.93;2.47;;;;;;;19.86;63.94;99267.97;10394646;28;20406;-65
2023/08/26 01:31:44;;;;;;;4.72;2.55;;;;;;;19.77;64.56;99266.25;10404592;28;20060;-66
2023/08/26 01:36:47;;;;;;;5.18;2.70;;;;;;;19.69;64.69;99279.53;10392931;28;20041;-66
2023/08/26 01:41:50;;;;;;;7.55;3.38;;;;;;;19.63;65.18;99281.03;10424204;28;20461;-66
2023/08/26 01:46:53;;;;;;;4.07;2.47;;;;;;;19.59;65.20;99294.78;10392531;28;20451;-66
2023/08/26 01:51:55;;;;;;;6.28;2.58;;;;;;;19.55;65.58;99299.59;10399985;28;20055;-66
2023/08/26 01:56:58;;;;;;;3.75;2.33;;;;;;;19.57;65.40;99304.72;10394016;28;20050;-66
2023/08/26 02:02:00;;;;;;;5.88;2.38;;;;;;;19.43;65.40;99309.69;10386354;28;20064;-65
2023/08/26 02:07:03;;;;;;;4.38;2.30;;;;;;;19.36;65.85;99313.97;10404539;28;20053;-66
2023/08/26 02:12:05;;;;;;;4.88;2.65;;;;;;;19.35;65.93;99320.28;10401374;28;20411;-66
2023/08/26 02:17:07;;;;;;;6.93;2.75;;;;;;;19.27;65.76;99332.69;10387435;28;20202;-66
2023/08/26 02:22:09;;;;;;;3.85;2.30;;;;;;;19.28;66.14;99342.28;10407399;28;20041;-66
2023/08/26 02:27:14;;;;;;;7.30;3.10;;;;;;;19.26;65.99;99352.22;10398725;28;20379;-66
2023/08/26 02:32:15;;;;;;;4.55;2.65;;;;;;;19.27;66.14;99354.72;10406144;28;20056;-65
2023/08/26 02:37:17;;;;;;;5.95;2.20;;;;;;;19.27;66.09;99360.03;10402093;28;20422;-65
2023/08/26 02:42:20;;;;;;;3.50;1.88;;;;;;;19.34;66.06;99357.53;10406762;28;20041;-65
2023/08/26 02:47:22;;;;;;;6.03;2.80;;;;;;;19.32;65.99;99363.00;10401351;28;20438;-66
2023/08/26 02:52:24;;;;;;;4.55;2.42;;;;;;;19.40;66.08;99357.72;10406808;28;20505;-65
2023/08/26 02:57:26;;;;;;;4.00;2.03;;;;;;;19.45;65.46;99365.22;10404551;28;20128;-65
2023/08/26 03:02:28;;;;;;;3.75;1.95;;;;;;;19.38;65.52;99359.72;10398804;28;20127;-66
2023/08/26 03:07:30;;;;;;;7.07;2.10;;;;;;;19.10;65.08;99337.09;10395774;28;20057;-66
2023/08/26 03:12:32;;;;;;;5.05;2.15;;;;;;;18.96;65.41;99352.72;10395939;28;20067;-66
2023/08/26 03:17:34;;;;;;;4.13;1.95;;;;;;;18.88;65.97;99369.44;10392186;28;20057;-65
2023/08/26 03:22:36;;;;;;;3.17;1.95;;;;;;;18.85;66.00;99384.81;10391598;28;20050;-65
2023/08/26 03:27:38;;;;;;;5.45;2.30;;;;;;;18.84;66.51;99378.69;10393352;28;20030;-65
2023/08/26 03:32:40;;;;;;;4.22;2.33;;;;;;;18.69;66.80;99390.81;10403077;28;20071;-65
2023/08/26 03:37:42;;;;;;;5.43;2.17;;;;;;;18.69;67.01;99395.31;10390558;28;20063;-66
2023/08/26 03:42:44;;;;;;;4.80;2.33;;;;;;;18.64;66.68;99401.06;10392456;28;20042;-66
2023/08/26 03:47:46;;;;;;;6.88;2.17;;;;;;;18.38;66.83;99402.88;10390344;28;20045;-66
2023/08/26 03:52:48;;;;;;;3.03;1.90;;;;;;;18.19;67.47;99421.53;10390507;28;20045;-65
2023/08/26 03:57:50;;;;;;;4.38;2.58;;;;;;;18.04;67.84;99426.53;10402376;28;20049;-66
2023/08/26 04:02:53;;;;;;;3.75;1.98;;;;;;;17.91;68.33;99435.81;10423872;28;20042;-66
2023/08/26 04:07:55;;;;;;;3.75;2.00;;;;;;;17.83;68.19;99455.09;10403547;28;20524;-66
2023/08/26 04:13:01;;;;;;;5.45;1.55;;;;;;;17.78;67.58;99455.53;10420664;28;20493;-66
2023/08/26 04:18:03;;;;;;;3.55;1.40;;;;;;;17.63;66.58;99464.09;10390308;28;20044;-66
2023/08/26 04:23:05;;;;;;;2.40;1.20;;;;;;;17.50;66.18;99459.19;10389501;28;20048;-66
2023/08/26 04:28:07;;;;;;;2.97;1.25;;;;;;;17.37;65.08;99471.88;10392204;28;20041;-66
2023/08/26 04:33:09;;;;;;;2.15;1.30;;;;;;;17.26;64.70;99477.31;10397105;28;20049;-65
2023/08/26 04:38:13;;;;;;;3.42;1.42;;;;;;;17.15;64.91;99485.44;10387285;28;20482;-65
2023/08/26 04:43:15;;;;;;;1.50;1.13;;;;;;;17.03;64.96;99487.41;10390392;28;20099;-65
2023/08/26 04:48:18;;;;;;;3.85;1.50;;;;;;;16.83;65.21;99495.53;10392107;28;20056;-65
2023/08/26 04:53:20;;;;;;;2.50;1.23;;;;;;;16.59;65.75;99506.50;10394493;28;20125;-66
2023/08/26 04:58:22;;;;;;;1.95;1.30;;;;;;;16.49;65.86;99508.31;10398394;28;20045;-66
2023/08/26 05:03:24;;;;;;;1.65;1.20;;;;;;;16.43;66.13;99514.16;10400697;28;20049;-65
2023/08/26 05:08:26;;;;;;;4.40;1.42;;;;;;;16.45;65.84;99514.00;10403363;28;20045;-67
2023/08/26 05:13:29;;;;;;;3.30;1.85;;;;;;;16.39;65.33;99514.53;10406775;28;20061;-66
2023/08/26 05:18:31;;;;;;;6.15;1.65;;;;;;;16.37;64.73;99525.25;10391864;28;20148;-65
2023/08/26 05:23:33;;;;;;;1.50;0.98;;;;;;;16.41;62.91;99525.78;10392041;28;20136;-66
2023/08/26 05:28:35;;;;;;;1.77;1.10;;;;;;;16.50;62.06;99527.63;10424161;28;20057;-65
2023/08/26 05:33:38;;;;;;;2.13;0.90;;;;;;;16.59;61.20;99518.91;10406261;28;20490;-66
2023/08/26 05:38:40;;;;;;;2.78;0.98;;;;;;;16.55;60.68;99526.25;10390066;28;20045;-66
2023/08/26 05:43:42;;;;;;;2.50;0.90;;;;;;;16.64;60.04;99535.16;10394026;28;20040;-65
2023/08/26 05:48:46;;;;;;;1.88;0.98;;;;;;;16.61;59.34;99549.44;10389360;28;20072;-66
2023/08/26 05:53:48;;;;;;;1.20;0.90;;;;;;;16.69;59.04;99544.31;10389592;28;20052;-66
2023/08/26 05:58:50;;;;;;;1.85;1.05;;;;;;;16.86;58.17;99551.53;10400618;28;20507;-66
2023/08/26 06:03:52;;;;;;;2.35;1.20;;;;;;;16.88;57.43;99548.75;10401506;28;20189;-65
2023/08/26 06:08:54;;;;;;;1.75;1.00;;;;;;;16.98;56.83;99553.03;10399224;28;20072;-66
2023/08/26 06:13:58;;;;;;;1.13;0.90;;;;;;;17.09;56.39;99560.00;10409914;28;20075;-67
2023/08/26 06:19:00;;;;;;;2.83;1.65;;;;;;;17.17;56.23;99565.41;10404542;28;20045;-67
2023/08/26 06:24:02;;;;;;;2.78;0.90;;;;;;;17.23;55.94;99561.34;10394480;28;20053;-66
2023/08/26 06:29:05;;;;;;;1.63;0.90;;;;;;;17.29;56.31;99582.75;10406176;28;20225;-66
2023/08/26 06:34:07;;;;;;;0.82;0.80;;;;;;;17.30;55.13;99583.59;10392416;28;20476;-65
2023/08/26 06:39:09;;;;;;;1.65;0.60;;;;;;;17.40;54.81;99587.09;10426869;28;20103;-67
2023/08/26 06:44:11;;;;;;;2.33;1.00;;;;;;;17.36;53.99;99586.53;10391891;28;20041;-66
2023/08/26 06:49:16;;;;;;;2.17;0.90;;;;;;;17.50;53.81;99583.44;10393916;28;20473;-66
2023/08/26 06:54:18;;;;;;;1.90;0.85;;;;;;;17.61;53.69;99583.25;10403582;28;20579;-66
2023/08/26 06:59:20;;;;;;;2.15;1.05;;;;;;;17.77;53.81;99582.66;10393029;28;20045;-66
2023/08/26 07:04:24;;;;;;;3.00;0.80;;;;;;;17.79;52.71;99586.78;10392340;28;20044;-66
2023/08/26 07:09:27;;;;;;;1.58;0.68;;;;;;;17.85;53.04;99577.47;10394822;28;20049;-67
2023/08/26 07:14:29;;;;;;;2.05;0.75;;;;;;;17.91;52.09;99573.41;10395171;28;20688;-67
2023/08/26 07:19:31;;;;;;;1.08;0.80;;;;;;;17.94;51.86;99567.78;10391401;28;20052;-66
2023/08/26 07:24:33;;;;;;;1.85;0.95;;;;;;;18.07;51.54;99566.50;10389918;28;20037;-66
2023/08/26 07:29:35;;;;;;;2.10;0.70;;;;;;;18.09;51.69;99568.97;10391846;28;20038;-64
2023/08/26 07:34:37;;;;;;;1.15;0.80;;;;;;;18.19;51.03;99564.47;10391379;28;20079;-64
2023/08/26 07:39:39;;;;;;;1.17;0.80;;;;;;;18.55;49.73;99561.72;10393214;28;20148;-64
2023/08/26 07:44:41;;;;;;;1.88;0.63;;;;;;;19.76;49.48;99560.00;10392599;28;20049;-64
2023/08/26 07:49:43;;;;;;;2.33;0.98;;;;;;;20.77;47.56;99549.19;10389564;28;20045;-65
2023/08/26 07:54:45;;;;;;;0.88;0.73;;;;;;;21.56;45.35;99540.44;10384960;28;20183;-65
2023/08/26 07:59:47;;;;;;;2.35;0.60;;;;;;;22.19;44.47;99538.56;10391904;28;20097;-65
2023/08/26 08:04:50;;;;;;;1.17;0.70;;;;;;;22.48;43.15;99536.03;10409351;28;20046;-65
2023/08/26 08:09:55;;;;;;;1.20;0.68;;;;;;;22.70;41.82;99537.03;10383457;28;20506;-66
2023/08/26 08:14:57;;;;;;;0.70;0.70;;;;;;;22.74;41.78;99535.72;10390141;28;21238;-65
2023/08/26 08:19:59;;;;;;;2.13;0.75;;;;;;;23.01;42.13;99547.66;10382333;28;20064;-65
2023/08/26 08:25:03;;;;;;;1.52;1.10;;;;;;;23.54;41.22;99554.66;10388152;28;20432;-66
2023/08/26 08:30:06;;;;;;;1.05;0.70;;;;;;;23.50;41.09;99554.22;10388203;28;20057;-66
2023/08/26 08:35:09;;;;;;;2.08;0.95;;;;;;;23.58;39.30;99543.44;10384441;28;20516;-67
2023/08/26 08:40:11;;;;;;;1.52;0.90;;;;;;;23.82;39.80;99537.81;10381661;28;20045;-66
2023/08/26 08:45:13;;;;;;;2.92;0.90;;;;;;;23.90;39.46;99536.91;10384858;28;20045;-67
2023/08/26 08:50:16;;;;;;;1.30;0.60;;;;;;;23.67;38.68;99537.00;10389819;28;20139;-65
2023/08/26 08:55:18;;;;;;;1.05;0.93;;;;;;;23.93;38.27;99524.00;10400028;28;20477;-66
2023/08/26 09:00:23;;;;;;;0.73;0.70;;;;;;;23.99;37.77;99517.06;10381336;28;20037;-65
2023/08/26 09:05:26;;;;;;;5.28;1.23;;;;;;;24.24;37.53;99507.75;10390087;28;20630;-65
2023/08/26 09:10:30;;;;;;;1.25;0.85;;;;;;;24.21;37.30;99516.13;10384170;28;20076;-65
2023/08/26 09:15:33;;;;;;;1.77;0.70;;;;;;;24.48;37.67;99523.41;10386711;28;20049;-65
2023/08/26 09:20:39;;;;;;;1.85;0.85;;;;;;;24.50;34.88;99529.41;10383767;28;20038;-66
2023/08/26 09:25:53;;;;;;;1.00;0.70;;;;;;;24.41;35.77;99527.06;10385921;28;20145;-66
2023/08/26 09:31:06;;;;;;;1.38;0.70;;;;;;;24.31;35.01;99527.34;10385530;28;20049;-65
2023/08/26 09:36:09;;;;;;;1.88;0.90;;;;;;;24.08;34.74;99530.16;10387066;28;20358;-65
2023/08/26 09:41:23;;;;;;;3.58;0.70;;;;;;;23.98;36.44;99523.44;10383845;28;20048;-66
2023/08/26 09:46:25;;;;;;;0.52;0.50;;;;;;;23.90;36.73;99520.88;10392463;28;20051;-66
2023/08/26 09:51:29;;;;;;;1.15;0.88;;;;;;;23.89;36.62;99519.22;10398277;28;20064;-65
2023/08/26 09:56:31;;;;;;;5.63;0.93;;;;;;;23.75;35.84;99520.91;10384604;28;20045;-66
2023/08/26 10:01:34;;;;;;;1.20;0.70;;;;;;;24.00;36.23;99514.22;10392625;28;20053;-65
2023/08/26 10:06:41;;;;;;;0.77;0.50;;;;;;;24.13;34.93;99513.56;10390255;28;20515;-66
2023/08/26 10:11:44;;;;;;;0.80;0.52;;;;;;;24.12;35.12;99520.75;10393068;28;20498;-66
2023/08/26 10:16:48;;;;;;;0.70;0.50;;;;;;;24.18;36.08;99520.00;10388706;28;20498;-65
2023/08/26 10:21:52;;;;;;;2.17;0.80;;;;;;;24.14;35.58;99524.06;10389601;28;20577;-65
2023/08/26 10:26:54;;;;;;;4.97;0.90;;;;;;;24.25;36.71;99512.91;10388139;28;20127;-65
2023/08/26 10:31:56;;;;;;;1.55;0.80;;;;;;;24.27;36.12;99510.84;10385521;28;20044;-66
2023/08/26 10:36:58;;;;;;;1.00;0.80;;;;;;;24.53;35.56;99507.63;10389052;28;20048;-65
2023/08/26 10:42:17;;;;;;;1.95;1.02;;;;;;;24.41;34.00;99509.13;10391367;28;20045;-65
2023/08/26 10:47:36;;;;;;;0.60;0.52;;;;;;;24.13;34.57;99509.06;10388043;28;20313;-66
2023/08/26 10:52:41;;;;;;;1.47;0.90;;;;;;;24.05;36.36;99498.47;10390759;28;20573;-65
2023/08/26 10:58:16;;;;;;;1.27;0.90;;;;;;;23.81;35.13;99501.47;10389794;28;20044;-65
2023/08/26 11:03:20;;;;;;;1.75;0.60;;;;;;;23.87;36.91;99494.53;10391790;28;20045;-65
2023/08/26 11:08:22;;;;;;;2.00;0.80;;;;;;;23.82;36.59;99502.28;10395837;28;20041;-65
2023/08/26 11:13:24;;;;;;;1.48;0.80;;;;;;;23.85;36.86;99491.22;10393855;28;20335;-65
2023/08/26 11:18:26;;;;;;;1.25;0.70;;;;;;;23.86;36.11;99499.03;10386870;28;20049;-65
2023/08/26 11:23:28;;;;;;;1.08;0.75;;;;;;;23.80;34.69;99493.63;10393956;28;20048;-65
2023/08/26 11:28:31;;;;;;;1.45;0.80;;;;;;;23.58;36.50;99499.91;10390746;28;20045;-65
2023/08/26 11:33:33;;;;;;;0.98;0.70;;;;;;;23.47;36.54;99485.19;10390955;28;20906;-65
2023/08/26 11:38:37;;;;;;;3.10;0.90;;;;;;;23.46;36.87;99491.53;10392084;28;20461;-65
2023/08/26 11:43:39;;;;;;;4.20;0.80;;;;;;;23.28;36.68;99489.22;10387775;28;20045;-65
2023/08/26 11:48:41;;;;;;;1.92;0.75;;;;;;;23.11;36.69;99506.38;10387083;28;20041;-65
2023/08/26 11:53:43;;;;;;;2.92;1.20;;;;;;;23.09;35.99;99499.56;10388376;28;20128;-65
2023/08/26 11:58:45;;;;;;;1.08;0.80;;;;;;;23.80;35.94;99494.44;10388982;28;20040;-65
2023/08/26 12:03:48;;;;;;;1.90;0.80;;;;;;;24.05;34.11;99490.44;10390914;28;20049;-65
2023/08/26 12:08:51;;;;;;;2.95;0.80;;;;;;;24.09;34.72;99494.44;10389799;28;20041;-65
2023/08/26 12:13:53;;;;;;;1.88;0.77;;;;;;;24.34;34.39;99500.25;10387211;28;20782;-65
2023/08/26 12:18:55;;;;;;;1.50;0.88;;;;;;;24.24;33.90;99492.53;10386230;28;20190;-64
2023/08/26 12:23:59;;;;;;;1.38;0.90;;;;;;;24.83;33.71;99484.28;10400998;28;20471;-65
2023/08/26 12:29:00;;;;;;;1.02;0.70;;;;;;;25.07;34.04;99486.50;10388899;28;20504;-65
2023/08/26 12:34:02;;;;;;;1.05;0.80;;;;;;;25.23;33.38;99483.53;10391258;28;20072;-65
2023/08/26 12:39:04;;;;;;;2.28;0.95;;;;;;;25.23;33.36;99478.19;10383865;28;20183;-65
2023/08/26 12:44:06;;;;;;;0.90;0.70;;;;;;;25.35;33.37;99486.50;10419885;28;20413;-65
2023/08/26 12:49:08;;;;;;;2.67;0.90;;;;;;;25.02;33.65;99468.38;10397468;28;20129;-64
2023/08/26 12:54:27;;;;;;;0.82;0.52;;;;;;;24.81;33.56;99471.09;10392906;28;20064;-65
2023/08/26 12:59:29;;;;;;;2.45;0.90;;;;;;;24.66;34.32;99481.00;10388482;28;20405;-65
2023/08/26 13:04:31;;;;;;;0.82;0.68;;;;;;;24.37;33.69;99464.28;10389557;28;20042;-64
2023/08/26 13:09:33;;;;;;;0.90;0.65;;;;;;;24.38;34.38;99466.78;10392913;28;20041;-65
2023/08/26 13:14:34;;;;;;;0.90;0.80;;;;;;;24.55;34.46;99457.44;10384359;28;20058;-65
2023/08/26 13:19:36;;;;;;;3.72;0.82;;;;;;;24.43;34.45;99456.31;10392745;28;20531;-64
2023/08/26 13:24:41;;;;;;;0.90;0.63;;;;;;;24.62;34.40;99453.00;10405050;28;20544;-64
2023/08/26 13:29:43;;;;;;;2.22;1.02;;;;;;;24.32;35.26;99448.00;10412020;28;20041;-64
2023/08/26 13:34:45;;;;;;;2.78;0.95;;;;;;;24.11;34.16;99430.94;10399808;28;20041;-65
2023/08/26 13:39:47;;;;;;;2.20;1.00;;;;;;;24.39;34.61;99430.19;10398043;28;20037;-63
2023/08/26 13:44:49;;;;;;;3.00;1.30;;;;;;;24.88;33.72;99433.69;10397209;28;20328;-63
2023/08/26 13:49:51;;;;;;;5.07;1.10;;;;;;;25.09;34.16;99429.09;10402338;28;20401;-62
2023/08/26 13:54:53;;;;;;;1.50;0.80;;;;;;;25.06;33.31;99428.69;10407092;28;20049;-63
2023/08/26 13:59:55;;;;;;;2.83;1.15;;;;;;;24.91;33.64;99427.94;10394180;28;20040;-64
2023/08/26 14:04:57;;;;;;;2.25;0.80;;;;;;;24.97;33.81;99432.53;10400422;28;20128;-63
2023/08/26 14:09:59;;;;;;;2.63;1.20;;;;;;;25.05;33.71;99427.00;10396568;28;20052;-63
2023/08/26 14:15:01;;;;;;;2.90;1.25;;;;;;;24.90;34.19;99419.09;10396147;28;20061;-63
2023/08/26 14:20:03;;;;;;;0.90;0.70;;;;;;;24.78;34.08;99422.50;10402033;28;20052;-64
2023/08/26 14:25:05;;;;;;;3.88;1.15;;;;;;;24.88;34.30;99425.66;10398393;28;20045;-63
2023/08/26 14:30:08;;;;;;;1.02;0.55;;;;;;;24.78;34.46;99425.16;10395134;28;20569;-63
2023/08/26 14:35:10;;;;;;;1.02;0.90;;;;;;;25.27;34.35;99420.56;10394059;28;20051;-65
2023/08/26 14:40:12;;;;;;;1.80;1.08;;;;;;;25.23;34.26;99423.81;10391537;28;20379;-64
2023/08/26 14:45:14;;;;;;;1.00;0.70;;;;;;;24.73;35.07;99411.56;10394226;28;20037;-64
2023/08/26 14:50:16;;;;;;;1.50;0.80;;;;;;;24.57;35.35;99403.81;10389118;28;20497;-64
2023/08/26 14:55:18;;;;;;;1.30;0.70;;;;;;;24.62;35.33;99401.38;10389770;28;20037;-63
2023/08/26 15:00:20;;;;;;;2.20;0.77;;;;;;;24.64;35.63;99391.31;10388380;28;20049;-64
2023/08/26 15:05:23;;;;;;;1.13;0.70;;;;;;;24.59;35.74;99389.19;10410921;28;20080;-64
2023/08/26 15:10:25;;;;;;;1.48;1.10;;;;;;;24.65;35.87;99383.09;10401897;28;20045;-63
2023/08/26 15:15:27;;;;;;;1.48;0.98;;;;;;;24.97;36.06;99376.34;10388090;28;20209;-63
2023/08/26 15:20:29;;;;;;;1.65;0.90;;;;;;;25.32;35.47;99358.41;10402186;28;20309;-63
2023/08/26 15:25:31;;;;;;;1.80;0.60;;;;;;;25.34;35.05;99346.50;10402698;28;20061;-63
2023/08/26 15:30:33;;;;;;;2.35;0.73;;;;;;;25.04;35.81;99345.06;10387098;28;20041;-65
2023/08/26 15:35:38;;;;;;;3.20;0.88;;;;;;;24.50;35.73;99344.09;10388567;28;20363;-64
2023/08/26 15:40:40;;;;;;;2.92;1.10;;;;;;;24.38;36.28;99329.63;10385656;28;20553;-65
2023/08/26 15:45:42;;;;;;;2.67;0.80;;;;;;;24.64;34.85;99321.78;10399663;28;20448;-65
2023/08/26 15:50:44;;;;;;;1.35;0.70;;;;;;;24.50;34.94;99320.03;10385944;28;20064;-63
2023/08/26 15:55:46;;;;;;;3.33;0.90;;;;;;;24.28;36.63;99317.44;10389176;28;20052;-63
2023/08/26 16:00:51;;;;;;;2.03;1.00;;;;;;;24.07;37.09;99327.31;10389643;28;20045;-63
2023/08/26 16:05:54;;;;;;;1.88;1.00;;;;;;;24.25;37.02;99323.16;10383598;28;20134;-63
2023/08/26 16:10:55;;;;;;;0.90;0.80;;;;;;;24.53;36.84;99333.84;10386359;28;20501;-63
2023/08/26 16:15:57;;;;;;;2.65;1.00;;;;;;;24.14;37.17;99337.03;10383710;28;20145;-63
2023/08/26 16:20:59;;;;;;;1.27;0.88;;;;;;;23.77;37.52;99333.78;10392812;28;20042;-63
2023/08/26 16:26:02;;;;;;;2.25;0.95;;;;;;;23.65;37.92;99344.13;10385305;28;20071;-63
2023/08/26 16:31:05;;;;;;;2.30;0.98;;;;;;;23.68;38.48;99346.41;10400324;28;20042;-64
2023/08/26 16:36:08;;;;;;;2.38;1.50;;;;;;;23.85;38.17;99350.50;10406642;28;20053;-63
2023/08/26 16:41:10;;;;;;;2.38;1.10;;;;;;;23.98;38.62;99347.94;10395653;28;20122;-64
2023/08/26 16:46:12;;;;;;;2.00;1.30;;;;;;;23.88;38.79;99351.97;10388097;28;20045;-64
2023/08/26 16:51:14;;;;;;;2.83;0.93;;;;;;;23.68;39.35;99354.44;10388379;28;20045;-63
2023/08/26 16:56:16;;;;;;;2.08;0.90;;;;;;;23.33;40.67;99366.72;10375223;28;20177;-62
2023/08/26 17:01:19;;;;;;;1.83;1.02;;;;;;;22.98;40.47;99362.19;10386805;28;20060;-63
2023/08/26 17:06:21;;;;;;;1.70;1.00;;;;;;;22.53;41.19;99370.28;10391822;28;20060;-64
2023/08/26 17:11:23;;;;;;;1.70;0.95;;;;;;;22.30;41.40;99369.50;10396997;28;20424;-66
2023/08/26 17:16:26;;;;;;;2.35;0.85;;;;;;;22.27;41.44;99370.66;10406659;28;20061;-65
2023/08/26 17:21:28;;;;;;;1.98;1.10;;;;;;;22.15;42.07;99366.78;10391528;28;20045;-64
2023/08/26 17:26:30;;;;;;;2.10;1.10;;;;;;;22.11;41.88;99365.47;10389742;28;20050;-64
2023/08/26 17:31:33;;;;;;;1.55;0.95;;;;;;;22.21;41.92;99367.91;10388280;28;20413;-63
2023/08/26 17:36:35;;;;;;;1.45;1.10;;;;;;;22.26;42.11;99366.38;10390756;28;20045;-64
2023/08/26 17:41:37;;;;;;;3.17;1.10;;;;;;;22.27;42.00;99384.00;10389866;28;20046;-63
2023/08/26 17:46:39;;;;;;;2.10;1.08;;;;;;;22.39;42.23;99377.22;10388230;28;20044;-64
2023/08/26 17:51:41;;;;;;;1.73;1.00;;;;;;;22.44;42.51;99376.69;10390495;28;20572;-63
2023/08/26 17:56:43;;;;;;;1.02;0.88;;;;;;;22.37;42.87;99376.56;10384330;28;20049;-64
2023/08/26 18:01:45;;;;;;;1.33;0.90;;;;;;;22.33;43.53;99385.13;10382496;28;20053;-64
2023/08/26 18:06:47;;;;;;;2.67;1.13;;;;;;;22.21;43.96;99398.03;10389956;28;20065;-63
2023/08/26 18:11:49;;;;;;;2.25;1.23;;;;;;;21.97;44.43;99405.31;10390363;28;20041;-64
2023/08/26 18:16:52;;;;;;;3.97;1.20;;;;;;;21.70;45.00;99410.16;10393626;28;20059;-64
2023/08/26 18:21:54;;;;;;;2.38;1.15;;;;;;;21.51;45.24;99407.09;10397055;28;20095;-64
2023/08/26 18:26:57;;;;;;;1.75;1.15;;;;;;;21.20;46.03;99415.03;10393126;28;20123;-64
2023/08/26 18:31:58;;;;;;;3.28;1.90;;;;;;;20.93;46.67;99416.25;10403660;28;20486;-64
2023/08/26 18:37:01;;;;;;;2.40;1.10;;;;;;;20.72;47.60;99418.63;10390100;28;20462;-65
2023/08/26 18:42:05;;;;;;;1.58;1.00;;;;;;;20.63;47.86;99424.13;10396113;28;20037;-65
2023/08/26 18:47:07;;;;;;;1.52;1.00;;;;;;;20.59;48.21;99431.59;10392688;28;20074;-65
2023/08/26 18:52:11;;;;;;;3.97;0.93;;;;;;;20.58;48.87;99427.28;10394342;28;20037;-62
2023/08/26 18:57:13;;;;;;;1.20;1.00;;;;;;;20.50;49.02;99437.88;10392988;28;20053;-64
2023/08/26 19:02:15;;;;;;;2.35;1.10;;;;;;;20.20;49.73;99442.03;10390537;28;20048;-63
2023/08/26 19:07:17;;;;;;;3.05;1.50;;;;;;;20.00;50.34;99447.78;10393664;28;20045;-62
2023/08/26 19:12:19;;;;;;;6.50;2.03;;;;;;;19.81;50.59;99445.38;10393700;28;20206;-63
2023/08/26 19:17:21;;;;;;;21.15;1.75;;;;;;;19.65;51.40;99451.47;10394957;28;20409;-62
2023/08/26 19:22:23;;;;;;;1.73;1.05;;;;;;;19.39;51.73;99454.22;10393098;28;20056;-62
2023/08/26 19:27:25;;;;;;;2.78;0.98;;;;;;;19.08;52.61;99450.41;10391431;28;20049;-62
2023/08/26 19:32:27;;;;;;;2.47;1.30;;;;;;;18.95;53.11;99452.59;10393168;28;20056;-62
2023/08/26 19:37:29;;;;;;;3.10;1.23;;;;;;;18.55;53.30;99461.09;10422794;28;20049;-65
2023/08/26 19:42:31;;;;;;;3.15;1.60;;;;;;;18.44;53.50;99468.47;10392399;28;20491;-65
2023/08/26 19:47:36;;;;;;;3.33;1.52;;;;;;;18.13;53.72;99464.50;10390654;28;20044;-65
2023/08/26 19:52:38;;;;;;;1.83;1.15;;;;;;;17.90;54.15;99468.53;10395081;28;20068;-65
2023/08/26 19:57:43;;;;;;;2.03;1.20;;;;;;;17.81;54.34;99468.44;10389677;28;20697;-65
2023/08/26 20:02:45;;;;;;;2.17;1.23;;;;;;;17.75;54.80;99468.22;10400654;28;20175;-65
2023/08/26 20:07:47;;;;;;;3.25;1.50;;;;;;;17.64;55.17;99471.91;10398547;28;20103;-65
2023/08/26 20:12:49;;;;;;;3.30;2.00;;;;;;;17.68;55.51;99472.44;10392471;28;20053;-65
2023/08/26 20:17:51;;;;;;;3.95;1.70;;;;;;;17.60;55.65;99478.47;10396485;28;20498;-65
2023/08/26 20:22:53;;;;;;;2.17;1.33;;;;;;;17.60;55.96;99480.28;10425801;28;20057;-65
2023/08/26 20:27:55;;;;;;;2.75;1.40;;;;;;;17.61;56.19;99472.19;10397929;28;20124;-65
2023/08/26 20:32:57;;;;;;;1.65;1.08;;;;;;;17.52;56.48;99470.44;10399300;28;20469;-65
2023/08/26 20:38:00;;;;;;;2.22;1.30;;;;;;;17.30;57.16;99472.59;10397370;28;20405;-65
2023/08/26 20:43:02;;;;;;;2.83;1.50;;;;;;;17.19;57.59;99463.03;10402466;28;20049;-65
2023/08/26 20:48:05;;;;;;;3.00;1.48;;;;;;;16.85;57.70;99451.31;10395775;28;20322;-65
2023/08/26 20:53:07;;;;;;;2.28;1.40;;;;;;;16.59;58.54;99448.44;10392393;28;20493;-64
2023/08/26 20:58:09;;;;;;;2.80;1.58;;;;;;;16.50;58.86;99457.22;10386363;28;20045;-64
2023/08/26 21:03:11;;;;;;;1.77;1.23;;;;;;;16.44;59.00;99446.38;10396026;28;20060;-65
2023/08/26 21:08:13;;;;;;;4.60;1.30;;;;;;;16.39;59.28;99445.91;10397583;28;20830;-64
2023/08/26 21:13:15;;;;;;;2.47;1.40;;;;;;;16.45;59.32;99450.66;10393596;28;20517;-64
2023/08/26 21:18:17;;;;;;;3.88;1.33;;;;;;;16.42;59.35;99453.56;10397460;28;20489;-65
2023/08/26 21:23:19;;;;;;;4.72;1.70;;;;;;;16.46;59.44;99457.63;10387932;28;20045;-64
2023/08/26 21:28:25;;;;;;;2.53;1.42;;;;;;;16.41;59.59;99463.28;10401834;28;20551;-65
2023/08/26 21:33:27;;;;;;;3.30;1.30;;;;;;;16.35;59.68;99465.63;10403550;28;20049;-64
2023/08/26 21:38:29;;;;;;;2.70;1.55;;;;;;;16.28;59.45;99457.47;10389882;28;20557;-65
2023/08/26 21:43:31;;;;;;;3.90;1.50;;;;;;;15.99;59.85;99464.53;10401213;28;20533;-65
2023/08/26 21:48:33;;;;;;;3.97;1.40;;;;;;;15.52;60.58;99466.09;10391265;28;20045;-65
2023/08/26 21:53:35;;;;;;;2.10;1.30;;;;;;;15.67;60.73;99477.94;10399098;28;20056;-65
2023/08/26 21:58:37;;;;;;;4.45;1.58;;;;;;;15.58;60.61;99491.06;10393747;28;20520;-64
2023/08/26 22:03:39;;;;;;;2.22;1.30;;;;;;;15.54;61.05;99476.47;10394461;28;20060;-64
2023/08/26 22:08:41;;;;;;;2.10;1.42;;;;;;;15.67;60.95;99458.63;10393665;28;20049;-65
2023/08/26 22:13:43;;;;;;;3.67;1.30;;;;;;;15.67;60.65;99466.53;10399940;28;20425;-65
2023/08/26 22:18:44;;;;;;;4.25;1.42;;;;;;;15.45;61.12;99483.34;10394428;28;20504;-63
2023/08/26 22:23:46;;;;;;;1.98;1.30;;;;;;;15.38;61.04;99464.63;10422272;28;20045;-63
2023/08/26 22:28:48;;;;;;;1.42;1.02;;;;;;;15.22;61.57;99466.09;10394510;28;20103;-63
2023/08/26 22:33:50;;;;;;;1.75;1.20;;;;;;;15.26;61.47;99472.75;10393092;28;20048;-63
2023/08/26 22:38:52;;;;;;;1.83;1.13;;;;;;;15.34;61.36;99465.88;10413675;28;20520;-64
2023/08/26 22:43:58;;;;;;;1.70;1.20;;;;;;;15.36;61.14;99479.75;10391020;28;20075;-63
2023/08/26 22:49:00;;;;;;;2.35;1.40;;;;;;;15.33;61.22;99479.16;10394186;28;20045;-63
2023/08/26 22:54:02;;;;;;;1.80;1.17;;;;;;;15.28;61.38;99481.34;10393145;28;20053;-63
2023/08/26 22:59:04;;;;;;;1.70;1.17;;;;;;;15.29;61.26;99472.47;10391023;28;20493;-63
2023/08/26 23:04:06;;;;;;;2.63;1.55;;;;;;;15.26;61.38;99472.75;10391046;28;20041;-64
2023/08/26 23:09:10;;;;;;;1.92;1.17;;;;;;;15.07;61.40;99480.56;10393136;28;20041;-63
2023/08/26 23:14:11;;;;;;;2.20;1.20;;;;;;;15.01;61.64;99499.50;10391852;28;20544;-64
2023/08/26 23:19:13;;;;;;;2.33;1.13;;;;;;;15.00;61.77;99467.06;10391396;28;20049;-63
2023/08/26 23:24:15;;;;;;;3.50;1.27;;;;;;;15.08;61.38;99467.25;10407863;28;20043;-64